Tiempo atmosférico en la estación meteorológica de Belorado, Burgos (875 m.)



Fecha
DESCASC
Temp. máxima en grados centígrados (hora)
DESCASC
Temp. mínima en grados centígrados (hora)
DESCASC
Temp. media en grados centígrados
DESCASC
Racha de viento máxima en m/sg (hora)
DESCASC
Velocidad máxima media en intervalos de 10 minutos(hora)
DESCASC
Precipitaciones diarias en mm
DESCASC
Precipitaciones de 00:00 a 06:00 en mm
DESCASC
Precipitaciones de 06:00 a 12:00 en mm
DESCASC
Precipitaciones de 12:00 a 18:00 en mm
DESCASC
Precipitaciones de 18:00 a 24:00 en mm
DESCASC
22-08-2019 26.7 (17:30) 8.2 (07:20) 17.5 9.17 (16:10) 4.17 (16:50) 0 0 0 0 0
21-08-2019 25 (18:40) 12 (02:50) 18.5 8.33 (19:10) 4.72 (19:10) 0 0 0 0 0
20-08-2019 19.6 (16:20) 11.5 (08:30) 15.6 7.78 (21:50) 4.44 (18:50) 1.7 0.2 1.5 0 0
19-08-2019 16.2 (16:30) 11.8 (05:10) 14 6.94 (00:10) 4.17 (17:50) 2.6 0.1 0.1 0 2.4
18-08-2019 30.9 (16:10) 13.8 (00:00) 22.3 9.17 (17:50) 6.11 (17:50) 0 0 0 0 0
17-08-2019 33.4 (18:30) 11.6 (00:00) 22.5 9.17 (17:30) 5 (17:30) 0 0 0 0 0
16-08-2019 30.8 (17:30) 10.3 (00:00) 20.5 7.78 (20:10) 4.17 (15:30) 0 0 0 0 0
15-08-2019 24.7 (17:50) 13.2 (00:00) 19 7.78 (15:20) 4.17 (17:40) 0 0 0 0 0
14-08-2019 30 (18:00) 8.6 (00:00) 19.3 14.17 (18:10) 5 (14:30) 0 0 0 0 0
13-08-2019 22.5 (18:00) 7.7 (00:00) 15.1 7.5 (16:30) 3.89 (19:40) 0 0 0 0 0
12-08-2019 21.3 (16:20) 8.3 (00:00) 14.8 9.44 (18:30) 5.28 (19:00) 0 0 0 0 0
11-08-2019 22.4 (17:20) 12.9 (00:00) 17.6 7.5 (17:40) 5 (17:40) 2.7 0.9 1.8 0 0
10-08-2019 27.3 (17:00) 13.2 (00:00) 20.2 8.89 (18:10) 5 (18:00) 0 0 0 0 0
09-08-2019 26.8 (17:40) 15 (00:00) 20.9 13.61 (11:40) 5.28 (14:00) 0.7 0 0 0 0.7
08-08-2019 30.7 (19:10) 17.2 (00:00) 24 10.56 (10:50) 3.61 (13:30) 0 0 0 0 0
07-08-2019 26.6 (16:00) 15.1 (00:00) 20.9 11.11 (18:30) 3.89 (18:20) 0.2 0 0 0 0.2
06-08-2019 30.9 (15:40) 12.4 (00:00) 21.6 7.78 (15:00) 4.44 (21:10) 0 0 0 0 0
05-08-2019 29.3 (18:20) 13 (00:00) 21.1 8.61 (18:10) 4.72 (19:30) 0.1 0 0 0.1 0
04-08-2019 28.8 (17:30) 15.8 (00:00) 22.3 9.17 (16:50) 5 (18:50) 0 0 0 0 0
03-08-2019 30.2 (18:00) 11.8 (00:00) 21 8.06 (20:10) 3.89 (20:10) 0 0 0 0 0
02-08-2019 26.5 (17:00) 14.2 (00:00) 20.3 6.39 (16:00) 3.33 (20:10) 0 0 0 0 0
01-08-2019 22.9 (17:50) 12.8 (00:00) 17.8 8.33 (06:10) 4.72 (06:30) 38.7 24.4 14.3 0 0
31-07-2019 24 (17:10) 7.5 (00:00) 15.8 8.06 (17:10) 5 (17:00) 0 0 0 0 0
30-07-2019 22.1 (17:30) 10.6 (00:00) 16.4 11.67 (15:40) 4.72 (19:20) 0 0 0 0 0
29-07-2019 28.2 (16:20) 9.8 (00:00) 19 10.28 (16:50) 5.28 (20:30) 0 0 0 0 0
28-07-2019 24.8 (20:00) 9.3 (00:00) 17 6.67 (14:20) 3.06 (15:50) 0 0 0 0 0
27-07-2019 14.8 (15:40) 11.8 (00:00) 13.3 4.44 (14:40) 3.06 (14:40) 7 0.6 2.5 3 0.9
26-07-2019 18 (00:20) 13.1 (00:00) 15.6 9.17 (07:10) 5.56 (07:10) 3.5 1.6 1.6 0 0.3

Gráficas

Temp. máximas Temp. mínimas Temp. medias Precipitaciones Rachas de viento máximas Velocidades máximas media en intervalos de 10 minutos

Datos horarios

Fecha y hora oficial Temperatura (ºC) Velocidad del viento (km/h) Dirección del viento Racha (km/h) Dirección de racha Precipitación (mm) Presión (hPa) Tendencia (hPa) Humedad (%)
2019-08-24 23:00:00 19.6 2 Sur 8 Este 0 -- -- 48
2019-08-24 22:00:00 21.2 6 Este 10 Este 0 -- -- 39
2019-08-24 21:00:00 24.2 2 Nordeste 10 Este 0 -- -- 32
2019-08-24 20:00:00 27.5 6 Este 20 Este 0 -- -- 26
2019-08-24 19:00:00 30.1 14 Este 23 Este 0 -- -- 22
2019-08-24 18:00:00 30.7 12 Este 27 Este 0 -- -- 22
2019-08-24 17:00:00 30.3 9 Este 22 Sur 0 -- -- 23
2019-08-24 16:00:00 30.3 12 Este 21 Este 0 -- -- 26
2019-08-24 15:00:00 29.4 9 Este 22 Norte 0 -- -- 29
2019-08-24 14:00:00 28.8 9 Nordeste 20 Este 0 -- -- 34
2019-08-24 13:00:00 27.2 7 Este 15 Este 0 -- -- 37
2019-08-24 12:00:00 25.2 4 Este 13 Este 0 -- -- 40
2019-08-24 11:00:00 22.8 3 Nordeste 12 Sur 0 -- -- 45
2019-08-24 10:00:00 20 0 Calma 5 Sur 0 -- -- 55
2019-08-24 09:00:00 16.4 0 Calma 8 Sur 0 -- -- 71
2019-08-24 08:00:00 12.6 3 Sudoeste 11 Oeste 0 -- -- 79
2019-08-24 07:00:00 12.8 4 Sudoeste 9 Sur 0 -- -- 78
2019-08-24 06:00:00 13.1 2 Sur 14 Oeste 0 -- -- 78
2019-08-24 05:00:00 13.8 4 Sudoeste 11 Oeste 0 -- -- 74
2019-08-24 04:00:00 14.5 2 Sudoeste 12 Sur 0 -- -- 71
2019-08-24 03:00:00 15.2 5 Sudoeste 11 Oeste 0 -- -- 68
2019-08-24 02:00:00 15.7 3 Sudoeste 12 Sur 0 -- -- 63
2019-08-24 01:00:00 16.1 2 Sudoeste 11 Oeste 0 -- -- 59
2019-08-24 00:00:00 16.8 4 Sudoeste 10 Sur 0 -- -- 56
2019-08-23 23:00:00 18.2 4 Sur 9 Sur 0 -- -- 50
2019-08-23 22:00:00 19.7 3 Sur 12 Este 0 -- -- 43
2019-08-23 21:00:00 23.4 5 Este 13 Este 0 -- -- 33
2019-08-23 20:00:00 27.6 11 Este 19 Este 0 -- -- 26
2019-08-23 19:00:00 29.1 9 Este 22 Este 0 -- -- 23
2019-08-23 18:00:00 29.7 12 Este 24 Este 0 -- -- 23
2019-08-23 17:00:00 29.9 13 Este 26 Este 0 -- -- 24
2019-08-23 16:00:00 29.3 14 Este 25 Este 0 -- -- 25
2019-08-23 15:00:00 27.9 13 Este 28 Este 0 -- -- 28
2019-08-23 14:00:00 26.3 12 Este 22 Este 0 -- -- 31
2019-08-23 13:00:00 25.2 5 Este 20 Este 0 -- -- 34
2019-08-23 12:00:00 22.5 4 Norte 9 Norte 0 -- -- 40
2019-08-23 11:00:00 19.5 4 Norte 8 Norte 0 -- -- 49
2019-08-23 10:00:00 17.5 3 Norte 6 Norte 0 -- -- 58
2019-08-23 09:00:00 12.9 0 Calma 6 Sur 0 -- -- 78
2019-08-23 08:00:00 9.6 4 Sudoeste 10 Sur 0 -- -- 83
2019-08-23 07:00:00 9.3 3 Sudoeste 9 Oeste 0 -- -- 83
2019-08-23 06:00:00 9.8 3 Sudoeste 11 Sur 0 -- -- 80
2019-08-23 05:00:00 10 3 Sudoeste 11 Sur 0 -- -- 80
2019-08-23 04:00:00 10.1 5 Sudoeste 12 Sudoeste 0 -- -- 80
2019-08-23 03:00:00 10.6 2 Sudoeste 9 Sur 0 -- -- 79
2019-08-23 02:00:00 11.4 3 Sudoeste 10 Sur 0 -- -- 75
2019-08-23 01:00:00 12.8 4 Sur 9 Este 0 -- -- 69
2019-08-23 00:00:00 14 2 Sudeste 10 Este 0 -- -- 63
2019-08-22 23:00:00 14.6 6 Este 10 Este 0 -- -- 56
2019-08-22 22:00:00 16.5 7 Este 16 Nordeste 0 -- -- 45
2019-08-22 21:00:00 20.1 10 Este 17 Norte 0 -- -- 33
2019-08-22 20:00:00 22.8 9 Norte 23 Norte 0 -- -- 20
2019-08-22 19:00:00 25.1 11 Nordeste 22 Este 0 -- -- 20
2019-08-22 18:00:00 26 11 Nordeste 25 Este 0 -- -- 19
2019-08-22 17:00:00 26.2 12 Norte 33 Este 0 -- -- 20
2019-08-22 16:00:00 25.4 10 Nordeste 23 Este 0 -- -- 19
2019-08-22 15:00:00 24.7 9 Nordeste 26 Norte 0 -- -- 24
2019-08-22 14:00:00 23.3 8 Nordeste 21 Norte 0 -- -- 30
2019-08-22 13:00:00 21.3 11 Este 22 Este 0 -- -- 34
2019-08-22 12:00:00 20 9 Nordeste 22 Norte 0 -- -- 40
2019-08-22 11:00:00 18.2 9 Nordeste 17 Este 0 -- -- 49
2019-08-22 10:00:00 15.9 0 Calma 10 Sur 0 -- -- 70
2019-08-22 09:00:00 11.7 3 Sudoeste 9 Oeste 0 -- -- 86
2019-08-22 08:00:00 8.4 0 Calma 9 Oeste 0 -- -- 90
2019-08-22 07:00:00 8.4 4 Sudoeste 9 Oeste 0 -- -- 90
2019-08-22 06:00:00 8.8 2 Sudoeste 9 Oeste 0 -- -- 90
2019-08-22 05:00:00 9 3 Sudoeste 9 Sur 0 -- -- 89
2019-08-22 04:00:00 10.3 3 Sudoeste 6 Sur 0 -- -- 88
2019-08-22 03:00:00 11.1 3 Sudoeste 8 Sur 0 -- -- 89
2019-08-22 02:00:00 11.7 5 Este 9 Nordeste 0 -- -- 89
2019-08-22 01:00:00 12.8 6 Este 15 Este 0 -- -- 89
2019-08-22 00:00:00 13.7 5 Este 13 Este 0 -- -- 87
2019-08-21 23:00:00 14.9 8 Nordeste 17 Norte 0 -- -- 82
2019-08-21 22:00:00 16.7 8 Nordeste 18 Este 0 -- -- 73
2019-08-21 21:00:00 18.7 11 Nordeste 28 Norte 0 -- -- 60
2019-08-21 20:00:00 21.7 15 Nordeste 30 Norte 0 -- -- 45
2019-08-21 19:00:00 24.1 14 Nordeste 28 Este 0 -- -- 37
2019-08-21 18:00:00 24.6 9 Nordeste 23 Este 0 -- -- 35
2019-08-21 17:00:00 23.9 11 Nordeste 24 Este 0 -- -- 35
2019-08-21 16:00:00 22.9 11 Este 24 Este 0 -- -- 41
2019-08-21 15:00:00 21.7 7 Este 19 Este 0 -- -- 45
2019-08-21 14:00:00 19.1 9 Este 17 Este 0 -- -- 52
2019-08-21 13:00:00 17.8 6 Este 14 Este 0 -- -- 59
2019-08-21 12:00:00 16.5 7 Este 17 Este 0 -- -- 68
2019-08-21 11:00:00 15.3 6 Este 11 Este 0 -- -- 76
2019-08-21 10:00:00 13.7 3 Este 9 Este 0 -- -- 84
2019-08-21 09:00:00 12.7 0 Calma 9 Este 0 -- -- 87
2019-08-21 08:00:00 12.3 3 Nordeste 8 Norte 0 -- -- 91
2019-08-21 07:00:00 12.3 4 Este 8 Este 0 -- -- 92
2019-08-21 06:00:00 12.3 4 Este 9 Este 0 -- -- 93
2019-08-21 05:00:00 12.3 4 Este 8 Este 0 -- -- 92
2019-08-21 04:00:00 12.3 5 Este 9 Este 0 -- -- 92
2019-08-21 03:00:00 12.2 4 Este 8 Este 0 -- -- 91
2019-08-21 02:00:00 12.3 6 Este 14 Este 0 -- -- 90
2019-08-21 01:00:00 12.5 9 Este 21 Este 0 -- -- 86
2019-08-21 00:00:00 13 10 Nordeste 19 Este 0 -- -- 81
2019-08-20 23:00:00 13.5 11 Este 24 Este 0 -- -- 73
2019-08-20 22:00:00 14.2 14 Este 28 Este 0 -- -- 67
2019-08-20 21:00:00 15.1 13 Nordeste 28 Norte 0 -- -- 62
2019-08-20 20:00:00 16.6 13 Nordeste 27 Norte 0 -- -- 57
2019-08-20 19:00:00 17.5 13 Nordeste 25 Este 0 -- -- 53
2019-08-20 18:00:00 18.4 15 Este 25 Este 0 -- -- 50
2019-08-20 17:00:00 18 13 Nordeste 25 Este 0 -- -- 53
2019-08-20 16:00:00 18.7 11 Nordeste 22 Este 0 -- -- 52
2019-08-20 15:00:00 16.4 15 Norte 26 Norte 0 -- -- 61
2019-08-20 14:00:00 16.2 10 Nordeste 22 Este 0 -- -- 66
2019-08-20 13:00:00 14.7 11 Nordeste 22 Norte 0 -- -- 78
2019-08-20 12:00:00 13.3 12 Nordeste 20 Norte 0 -- -- 90
2019-08-20 11:00:00 12.1 9 Este 16 Este 0.1 -- -- 97
2019-08-20 10:00:00 12.2 7 Este 13 Este 0 -- -- 95
2019-08-20 09:00:00 11.7 8 Este 19 Norte 0.3 -- -- 97
2019-08-20 08:00:00 11.8 10 Nordeste 22 Este 1.1 -- -- 97
2019-08-20 07:00:00 12 4 Nordeste 14 Este 0 -- -- 97
2019-08-20 06:00:00 12.2 8 Nordeste 14 Este 0 -- -- 96
2019-08-20 05:00:00 12.1 6 Nordeste 14 Este 0.1 -- -- 97
2019-08-20 04:00:00 12.1 9 Norte 19 Norte 0 -- -- 97
2019-08-20 03:00:00 12.2 10 Nordeste 23 Este 0.1 -- -- 98
2019-08-20 02:00:00 12.3 12 Nordeste 21 Este 0 -- -- 96
2019-08-20 01:00:00 12.6 8 Nordeste 17 Norte 0 -- -- 94
2019-08-20 00:00:00 12.7 5 Nordeste 15 Norte 0 -- -- 94
2019-08-19 23:00:00 12.9 6 Nordeste 15 Este 0 -- -- 93
2019-08-19 22:00:00 13.1 8 Nordeste 16 Este 0 -- -- 91
2019-08-19 21:00:00 13.3 9 Nordeste 22 Norte 2.4 -- -- 87
2019-08-19 20:00:00 15 10 Nordeste 21 Norte 0 -- -- 68
2019-08-19 19:00:00 15.4 13 Norte 21 Norte 0 -- -- 67
2019-08-19 18:00:00 15.5 13 Norte 22 Norte 0 -- -- 68
2019-08-19 17:00:00 15.8 11 Nordeste 22 Este 0 -- -- 68
2019-08-19 16:00:00 15.9 11 Nordeste 20 Norte 0 -- -- 67
2019-08-19 15:00:00 15.3 9 Nordeste 21 Norte 0 -- -- 72
2019-08-19 14:00:00 14.3 13 Norte 21 Norte 0 -- -- 77
2019-08-19 13:00:00 14.6 11 Norte 19 Norte 0 -- -- 77
2019-08-19 12:00:00 13.1 10 Nordeste 18 Este 0 -- -- 89
2019-08-19 11:00:00 13.1 10 Nordeste 20 Este 0 -- -- 90
2019-08-19 10:00:00 12.5 9 Norte 16 Norte 0 -- -- 96
2019-08-19 09:00:00 12.2 8 Nordeste 14 Norte 0.1 -- -- 97
2019-08-19 08:00:00 11.9 6 Nordeste 17 Este 0 -- -- 97
2019-08-19 07:00:00 11.9 9 Este 14 Este 0 -- -- 97
2019-08-19 06:00:00 11.9 8 Este 16 Este 0 -- -- 95
2019-08-19 05:00:00 11.9 9 Nordeste 14 Norte 0.1 -- -- 97
2019-08-19 04:00:00 12 8 Este 15 Este 0 -- -- 98
2019-08-19 03:00:00 12.2 7 Nordeste 14 Este 0 -- -- 98
2019-08-19 02:00:00 12.7 10 Este 21 Este 0 -- -- 97
2019-08-19 01:00:00 13.6 9 Este 25 Este 0 -- -- 90
2019-08-19 00:00:00 13.8 13 Nordeste 24 Este 0 -- -- 89
2019-08-18 23:00:00 15.1 10 Nordeste 24 Nordeste 0 -- -- 87
2019-08-18 22:00:00 15.9 14 Este 21 Este 0 -- -- 84
2019-08-18 21:00:00 16.6 13 Este 24 Este 0 -- -- 80
2019-08-18 20:00:00 18 13 Nordeste 24 Este 0 -- -- 76
2019-08-18 19:00:00 20.9 15 Nordeste 31 Norte 0 -- -- 65
2019-08-18 18:00:00 23.3 17 Nordeste 33 Norte 0 -- -- 55
2019-08-18 17:00:00 30.1 12 Oeste 31 Oeste 0 -- -- 22
2019-08-18 16:00:00 30.3 9 Sudoeste 32 Oeste 0 -- -- 26
2019-08-18 15:00:00 29.4 9 Oeste 27 Oeste 0 -- -- 29
2019-08-18 14:00:00 28.6 7 Este 19 Sur 0 -- -- 37
2019-08-18 13:00:00 26.5 10 Este 22 Este 0 -- -- 41
2019-08-18 12:00:00 26.1 12 Este 19 Este 0 -- -- 44
2019-08-18 11:00:00 23.1 9 Este 18 Este 0 -- -- 46
2019-08-18 10:00:00 24 5 Nordeste 14 Oeste 0 -- -- 46
2019-08-18 09:00:00 21.5 2 Sudeste 10 Norte 0 -- -- 52
2019-08-18 08:00:00 17.1 3 Sudoeste 10 Sur 0 -- -- 63
2019-08-18 07:00:00 16.5 3 Sur 8 Sur 0 -- -- 61
2019-08-18 06:00:00 17.2 3 Sudoeste 12 Sur 0 -- -- 55
2019-08-18 05:00:00 17.8 2 Sudoeste 11 Sur 0 -- -- 51
2019-08-18 04:00:00 19 4 Sudoeste 15 Sur 0 -- -- 46
2019-08-18 03:00:00 20.6 4 Sudoeste 14 Oeste 0 -- -- 42
2019-08-18 02:00:00 18.8 5 Sudoeste 13 Oeste 0 -- -- 43
2019-08-18 01:00:00 17.7 3 Sudoeste 9 Sur 0 -- -- 45
2019-08-18 00:00:00 18.2 0 Calma 12 Oeste 0 -- -- 43
2019-08-17 23:00:00 19.4 5 Sur 11 Sur 0 -- -- 43
2019-08-17 22:00:00 21.8 0 Calma 11 Oeste 0 -- -- 38
2019-08-17 21:00:00 25.6 5 Sudoeste 17 Sudoeste 0 -- -- 28
2019-08-17 20:00:00 32.2 8 Oeste 21 Sur 0 -- -- 19
2019-08-17 19:00:00 32.7 6 Sudoeste 25 Oeste 0 -- -- 20
2019-08-17 18:00:00 33.1 10 Oeste 33 Oeste 0 -- -- 20
2019-08-17 17:00:00 33 10 Oeste 31 Oeste 0 -- -- 20
2019-08-17 16:00:00 32.6 9 Sudoeste 31 Oeste 0 -- -- 20
2019-08-17 15:00:00 31.5 11 Oeste 27 Sudoeste 0 -- -- 23
2019-08-17 14:00:00 30.5 11 Oeste 27 Oeste 0 -- -- 23
2019-08-17 13:00:00 27.5 3 Noroeste 17 Este 0 -- -- 30
2019-08-17 12:00:00 25.8 6 Este 15 Este 0 -- -- 36
2019-08-17 11:00:00 23 5 Norte 11 Norte 0 -- -- 41
2019-08-17 10:00:00 20 7 Norte 14 Oeste 0 -- -- 47
2019-08-17 09:00:00 16.4 0 Calma 9 Oeste 0 -- -- 63
2019-08-17 08:00:00 11.8 0 Calma 13 Oeste 0 -- -- 75
2019-08-17 07:00:00 12.1 4 Sudoeste 12 Sur 0 -- -- 73
2019-08-17 06:00:00 12.2 3 Sudoeste 9 Sur 0 -- -- 73
2019-08-17 05:00:00 12.4 5 Sur 8 Sur 0 -- -- 74
2019-08-17 04:00:00 13.4 3 Sudoeste 9 Oeste 0 -- -- 71
2019-08-17 03:00:00 14 4 Sudoeste 10 Oeste 0 -- -- 66
2019-08-17 02:00:00 15.8 7 Este 13 Este 0 -- -- 60
2019-08-17 01:00:00 16.4 3 Este 14 Este 0 -- -- 60
2019-08-17 00:00:00 17.1 7 Este 11 Este 0 -- -- 62
2019-08-16 23:00:00 19 6 Este 27 Este 0 -- -- 53
2019-08-16 22:00:00 20.6 8 Este 15 Este 0 -- -- 48
2019-08-16 21:00:00 23.6 10 Norte 28 Norte 0 -- -- 41
2019-08-16 20:00:00 29.4 11 Este 19 Este 0 -- -- 29
2019-08-16 19:00:00 30.3 13 Este 22 Este 0 -- -- 28
2019-08-16 18:00:00 30.1 12 Este 25 Este 0 -- -- 28
2019-08-16 17:00:00 30.3 10 Este 24 Este 0 -- -- 29
2019-08-16 16:00:00 29.5 14 Este 25 Este 0 -- -- 30
2019-08-16 15:00:00 28.7 13 Nordeste 26 Este 0 -- -- 31
2019-08-16 14:00:00 27.2 12 Este 23 Este 0 -- -- 35
2019-08-16 13:00:00 25.9 11 Este 21 Este 0 -- -- 38
2019-08-16 12:00:00 24.4 6 Nordeste 16 Este 0 -- -- 42
2019-08-16 11:00:00 21.6 8 Norte 12 Norte 0 -- -- 52
2019-08-16 10:00:00 18.6 3 Norte 6 Norte 0 -- -- 67
2019-08-16 09:00:00 15 0 Calma 8 Oeste 0 -- -- 80
2019-08-16 08:00:00 11.2 2 Sudoeste 8 Sur 0 -- -- 94
2019-08-16 07:00:00 10.7 2 Sudoeste 7 Sur 0 -- -- 94
2019-08-16 06:00:00 10.8 0 Calma 5 Oeste 0 -- -- 94
2019-08-16 05:00:00 11 0 Calma 7 Oeste 0 -- -- 93
2019-08-16 04:00:00 11.1 0 Calma 6 Sur 0 -- -- 92
2019-08-16 03:00:00 11.2 0 Calma 6 Oeste 0 -- -- 90
2019-08-16 02:00:00 11.9 2 Sudoeste 6 Sur 0 -- -- 89
2019-08-16 01:00:00 12.5 2 Sudeste 5 Este 0 -- -- 87
2019-08-16 00:00:00 13.3 4 Este 6 Este 0 -- -- 83
2019-08-15 23:00:00 14.6 3 Este 9 Este 0 -- -- 77
2019-08-15 22:00:00 15.8 6 Este 17 Este 0 -- -- 71
2019-08-15 21:00:00 18 13 Este 22 Este 0 -- -- 62
2019-08-15 20:00:00 20.6 14 Nordeste 26 Este 0 -- -- 52
2019-08-15 19:00:00 22.6 15 Este 26 Este 0 -- -- 45
2019-08-15 18:00:00 24.4 14 Este 26 Este 0 -- -- 41
2019-08-15 17:00:00 23.5 10 Nordeste 26 Norte 0 -- -- 42
2019-08-15 16:00:00 23.6 12 Nordeste 28 Este 0 -- -- 44
2019-08-15 15:00:00 23.4 9 Nordeste 27 Este 0 -- -- 48
2019-08-15 14:00:00 21.1 9 Este 20 Este 0 -- -- 61
2019-08-15 13:00:00 19.4 11 Este 21 Este 0 -- -- 71
2019-08-15 12:00:00 17.3 11 Este 22 Norte 0 -- -- 83
2019-08-15 11:00:00 16.9 10 Nordeste 17 Norte 0 -- -- 87
2019-08-15 10:00:00 16.6 8 Nordeste 14 Este 0 -- -- 91
2019-08-15 09:00:00 17.1 9 Este 13 Este 0 -- -- 87
2019-08-15 08:00:00 16.9 6 Este 10 Este 0 -- -- 86
2019-08-15 07:00:00 17 6 Este 14 Sur 0 -- -- 84
2019-08-15 06:00:00 17.1 7 Este 10 Este 0 -- -- 84
2019-08-15 05:00:00 16.9 4 Este 8 Este 0 -- -- 84
2019-08-15 04:00:00 15.8 0 Calma 5 Este 0 -- -- 84
2019-08-15 03:00:00 14.6 0 Calma 7 Este 0 -- -- 85
2019-08-15 02:00:00 14.7 5 Este 10 Este 0 -- -- 85
2019-08-15 01:00:00 14.9 8 Este 10 Este 0 -- -- 83
2019-08-15 00:00:00 15.2 8 Este 9 Este 0 -- -- 75
2019-08-14 23:00:00 16.2 8 Este 19 Este 0 -- -- 68
2019-08-14 22:00:00 18.3 12 Este 19 Este 0 -- -- 57
2019-08-14 21:00:00 20.5 11 Norte 25 Norte 0 -- -- 49
2019-08-14 20:00:00 23.6 14 Nordeste 28 Norte 0 -- -- 40
2019-08-14 19:00:00 26.2 14 Nordeste 51 Este 0 -- -- 33
2019-08-14 18:00:00 29.7 5 Noroeste 17 Oeste 0 -- -- 23
2019-08-14 17:00:00 29.4 7 Noroeste 28 Oeste 0 -- -- 23
2019-08-14 16:00:00 28.2 3 Sudoeste 23 Oeste 0 -- -- 24
2019-08-14 15:00:00 26.8 8 Oeste 27 Oeste 0 -- -- 24
2019-08-14 14:00:00 26.6 8 Sudoeste 27 Sudoeste 0 -- -- 24
2019-08-14 13:00:00 25.3 7 Oeste 26 Oeste 0 -- -- 27
2019-08-14 12:00:00 23.4 3 Oeste 13 Este 0 -- -- 34
2019-08-14 11:00:00 20.1 0 Calma 9 Norte 0 -- -- 47
2019-08-14 10:00:00 17.3 4 Norte 7 Norte 0 -- -- 59
2019-08-14 09:00:00 13.9 0 Calma 7 Oeste 0 -- -- 73
2019-08-14 08:00:00 9.6 4 Sudoeste 8 Oeste 0 -- -- 84
2019-08-14 07:00:00 9.6 3 Sudoeste 8 Oeste 0 -- -- 83
2019-08-14 06:00:00 9.5 0 Calma 10 Oeste 0 -- -- 87
2019-08-14 05:00:00 9.3 3 Sur 7 Sur 0 -- -- 88
2019-08-14 04:00:00 9.8 0 Calma 13 Oeste 0 -- -- 87
2019-08-14 03:00:00 9.9 3 Sudoeste 9 Oeste 0 -- -- 87
2019-08-14 02:00:00 10.4 3 Sudoeste 8 Sur 0 -- -- 85
2019-08-14 01:00:00 11.4 3 Sur 8 Sur 0 -- -- 80
2019-08-14 00:00:00 12.3 4 Este 9 Este 0 -- -- 77
2019-08-13 23:00:00 12.8 7 Este 10 Este 0 -- -- 73
2019-08-13 22:00:00 14 6 Este 14 Este 0 -- -- 65
2019-08-13 21:00:00 17.1 9 Este 21 Este 0 -- -- 50
2019-08-13 20:00:00 19.8 13 Nordeste 24 Norte 0 -- -- 41
2019-08-13 19:00:00 21.9 11 Nordeste 22 Este 0 -- -- 35
2019-08-13 18:00:00 21.9 9 Nordeste 21 Norte 0 -- -- 33
2019-08-13 17:00:00 21.6 10 Norte 27 Este 0 -- -- 33
2019-08-13 16:00:00 21.4 9 Norte 23 Este 0 -- -- 31
2019-08-13 15:00:00 20.5 8 Norte 22 Norte 0 -- -- 37
2019-08-13 14:00:00 18.3 8 Nordeste 21 Norte 0 -- -- 39
2019-08-13 13:00:00 17.5 8 Nordeste 19 Norte 0 -- -- 48
2019-08-13 12:00:00 15.7 7 Nordeste 21 Este 0 -- -- 58
2019-08-13 11:00:00 15 10 Este 17 Este 0 -- -- 63
2019-08-13 10:00:00 12.3 8 Este 13 Este 0 -- -- 79
2019-08-13 09:00:00 10.6 2 Norte 7 Sur 0 -- -- 83
2019-08-13 08:00:00 7.8 3 Sur 7 Oeste 0 -- -- 88
2019-08-13 07:00:00 8.3 4 Este 6 Este 0 -- -- 87
2019-08-13 06:00:00 9.6 3 Este 8 Este 0 -- -- 86
2019-08-13 05:00:00 10.1 5 Este 9 Este 0 -- -- 85
2019-08-13 04:00:00 9.7 3 Este 9 Este 0 -- -- 88
2019-08-13 03:00:00 10.5 6 Sudeste 12 Este 0 -- -- 85
2019-08-13 02:00:00 10.5 5 Este 8 Este 0 -- -- 87
2019-08-13 01:00:00 11.5 6 Este 17 Este 0 -- -- 83
2019-08-13 00:00:00 12.2 10 Este 17 Este 0 -- -- 78
2019-08-12 23:00:00 12.4 11 Este 17 Este 0 -- -- 75
2019-08-12 22:00:00 12.4 9 Este 21 Este 0 -- -- 72
2019-08-12 21:00:00 13.6 13 Este 24 Este 0 -- -- 66
2019-08-12 20:00:00 14.8 15 Este 29 Este 0 -- -- 60
2019-08-12 19:00:00 16.7 19 Norte 34 Este 0 -- -- 48
2019-08-12 18:00:00 18.4 16 Norte 27 Norte 0 -- -- 42
2019-08-12 17:00:00 18.9 13 Norte 27 Este 0 -- -- 40
2019-08-12 16:00:00 18.4 11 Nordeste 24 Norte 0 -- -- 40
2019-08-12 15:00:00 18.6 8 Nordeste 21 Norte 0 -- -- 41
2019-08-12 14:00:00 18 7 Norte 20 Oeste 0 -- -- 44
2019-08-12 13:00:00 17.1 6 Norte 25 Norte 0 -- -- 48
2019-08-12 12:00:00 16.4 6 Norte 17 Este 0 -- -- 52
2019-08-12 11:00:00 14.6 6 Norte 14 Norte 0 -- -- 61
2019-08-12 10:00:00 13.4 5 Norte 12 Norte 0 -- -- 66
2019-08-12 09:00:00 11.7 0 Calma 7 Oeste 0 -- -- 80
2019-08-12 08:00:00 8.6 3 Sudoeste 8 Oeste 0 -- -- 89
2019-08-12 07:00:00 8.9 0 Calma 9 Oeste 0 -- -- 88
2019-08-12 06:00:00 9 3 Sudoeste 8 Oeste 0 -- -- 87
2019-08-12 05:00:00 10.3 3 Sudoeste 8 Oeste 0 -- -- 84
2019-08-12 04:00:00 11.4 0 Calma 8 Este 0 -- -- 81
2019-08-12 03:00:00 12.1 7 Este 12 Este 0 -- -- 80
2019-08-12 02:00:00 12.4 8 Este 17 Este 0 -- -- 80
2019-08-12 01:00:00 12.5 10 Este 16 Este 0 -- -- 79
2019-08-12 00:00:00 13 9 Este 14 Este 0 -- -- 80
2019-08-11 23:00:00 13.3 10 Este 18 Este 0 -- -- 78
2019-08-11 22:00:00 13.7 13 Este 20 Nordeste 0 -- -- 77
2019-08-11 21:00:00 14.5 13 Este 21 Nordeste 0 -- -- 76
2019-08-11 20:00:00 15.5 12 Este 23 Este 0 -- -- 75
2019-08-11 19:00:00 17.2 10 Nordeste 27 Oeste 0 -- -- 66
2019-08-11 18:00:00 20.3 15 Norte 27 Noroeste 0 -- -- 52
2019-08-11 17:00:00 21.2 4 Este 19 Norte 0 -- -- 49
2019-08-11 16:00:00 19.4 9 Norte 18 Norte 0 -- -- 54
2019-08-11 15:00:00 18.8 11 Nordeste 21 Este 0 -- -- 59
2019-08-11 14:00:00 19.1 9 Nordeste 21 Norte 0 -- -- 59
2019-08-11 13:00:00 18.7 7 Norte 20 Norte 0 -- -- 62
2019-08-11 12:00:00 17.4 10 Norte 18 Norte 0.1 -- -- 74
2019-08-11 11:00:00 17.5 6 Este 13 Este 0 -- -- 73
2019-08-11 10:00:00 15.6 6 Nordeste 12 Este 0 -- -- 85
2019-08-11 09:00:00 15 4 Este 14 Este 0 -- -- 90
2019-08-11 08:00:00 13.3 9 Este 14 Este 0 -- -- 97
2019-08-11 07:00:00 13.4 3 Sudeste 12 Oeste 1.7 -- -- 94
2019-08-11 06:00:00 13.4 8 Oeste 17 Oeste 0.4 -- -- 93
2019-08-11 05:00:00 14 0 Calma 10 Este 0 -- -- 95
2019-08-11 04:00:00 13.6 5 Este 14 Norte 0.5 -- -- 95
2019-08-11 03:00:00 13.7 6 Norte 16 Norte 0 -- -- 93
2019-08-11 02:00:00 13.9 9 Nordeste 22 Norte 0 -- -- 93
2019-08-11 01:00:00 14.6 12 Norte 19 Este 0 -- -- 87
2019-08-11 00:00:00 15 8 Nordeste 17 Este 0 -- -- 83
2019-08-10 23:00:00 15.3 11 Este 21 Este 0 -- -- 78
2019-08-10 22:00:00 15.8 14 Este 23 Este 0 -- -- 72
2019-08-10 21:00:00 17.4 15 Este 25 Norte 0 -- -- 63
2019-08-10 20:00:00 20.7 16 Norte 28 Este 0 -- -- 55
2019-08-10 19:00:00 22.9 16 Norte 32 Norte 0 -- -- 47
2019-08-10 18:00:00 24.9 18 Norte 30 Norte 0 -- -- 41
2019-08-10 17:00:00 27.3 3 Este 19 Este 0 -- -- 33
2019-08-10 16:00:00 25.2 3 Norte 31 Sur 0 -- -- 35
2019-08-10 15:00:00 24.6 0 Calma 19 Oeste 0 -- -- 36
2019-08-10 14:00:00 23.9 0 Calma 22 Oeste 0 -- -- 38
2019-08-10 13:00:00 22.8 7 Oeste 20 Oeste 0 -- -- 43
2019-08-10 12:00:00 20.8 3 Oeste 18 Oeste 0 -- -- 52
2019-08-10 11:00:00 19.1 3 Norte 10 Norte 0 -- -- 68
2019-08-10 10:00:00 16.3 3 Norte 8 Norte 0 -- -- 77
2019-08-10 09:00:00 14.7 0 Calma 6 Norte 0 -- -- 79
2019-08-10 08:00:00 13.7 4 Norte 6 Norte 0 -- -- 83
2019-08-10 07:00:00 13.6 0 Calma 10 Oeste 0 -- -- 78
2019-08-10 06:00:00 14.1 0 Calma 8 Sur 0 -- -- 77
2019-08-10 05:00:00 13.5 0 Calma 7 Sudoeste 0 -- -- 80
2019-08-10 04:00:00 14.5 6 Oeste 17 Oeste 0 -- -- 78
2019-08-10 03:00:00 15 5 Oeste 15 Oeste 0 -- -- 75
2019-08-10 02:00:00 14.4 11 Oeste 17 Oeste 0 -- -- 74
2019-08-10 01:00:00 15.8 7 Oeste 17 Oeste 0 -- -- 69
2019-08-10 00:00:00 15.2 3 Sudoeste 18 Oeste 0 -- -- 71
2019-08-09 23:00:00 16.4 5 Oeste 17 Oeste 0 -- -- 66
2019-08-09 22:00:00 16.5 5 Sur 28 Sur 0.1 -- -- 69
2019-08-09 21:00:00 17.8 15 Sur 34 Oeste 0.6 -- -- 68
2019-08-09 20:00:00 20.9 8 Sudoeste 32 Oeste 0 -- -- 52
2019-08-09 19:00:00 23.3 10 Sur 48 Sudoeste 0 -- -- 49
2019-08-09 18:00:00 26.1 15 Sudoeste 45 Sur 0 -- -- 45
2019-08-09 17:00:00 25.7 14 Sudoeste 40 Oeste 0 -- -- 50
2019-08-09 16:00:00 24.1 8 Sudoeste 33 Oeste 0 -- -- 57
2019-08-09 15:00:00 24.7 12 Sudoeste 36 Oeste 0 -- -- 53
2019-08-09 14:00:00 23.5 19 Oeste 41 Oeste 0 -- -- 59
2019-08-09 13:00:00 23.9 14 Oeste 39 Oeste 0 -- -- 58
2019-08-09 12:00:00 25.1 13 Sudoeste 49 Sur 0 -- -- 51
2019-08-09 11:00:00 24.9 9 Sudoeste 38 Sur 0 -- -- 52
2019-08-09 10:00:00 24.2 8 Sur 39 Sur 0 -- -- 52
2019-08-09 09:00:00 23 8 Sudoeste 24 Sur 0 -- -- 56
2019-08-09 08:00:00 21.1 6 Sur 22 Sur 0 -- -- 61
2019-08-09 07:00:00 20 3 Sur 15 Sur 0 -- -- 63
2019-08-09 06:00:00 19.5 3 Sur 13 Sur 0 -- -- 65
2019-08-09 05:00:00 19.2 3 Sur 14 Sur 0 -- -- 63
2019-08-09 04:00:00 21.7 6 Sudoeste 21 Sur 0 -- -- 54
2019-08-09 03:00:00 21.5 4 Sur 18 Sur 0 -- -- 52
2019-08-09 02:00:00 22.9 6 Sur 27 Sur 0 -- -- 47
2019-08-09 01:00:00 23.9 8 Sudoeste 25 Sur 0 -- -- 45
2019-08-09 00:00:00 24.6 7 Sudoeste 26 Sur 0 -- -- 43
2019-08-08 23:00:00 24.1 4 Sudoeste 15 Sur 0 -- -- 44
2019-08-08 22:00:00 24.2 2 Sudoeste 18 Oeste 0 -- -- 39
2019-08-08 21:00:00 28.2 6 Sudoeste 24 Sur 0 -- -- 34
2019-08-08 20:00:00 30 10 Sudoeste 32 Sur 0 -- -- 34
2019-08-08 19:00:00 30.5 7 Sudoeste 28 Sur 0 -- -- 34
2019-08-08 18:00:00 30.4 10 Sudoeste 36 Oeste 0 -- -- 35
2019-08-08 17:00:00 29 8 Sudoeste 30 Oeste 0 -- -- 39
2019-08-08 16:00:00 26.7 8 Sur 27 Sur 0 -- -- 45
2019-08-08 15:00:00 26.4 8 Sudoeste 31 Sur 0 -- -- 46
2019-08-08 14:00:00 25.5 10 Sudoeste 37 Oeste 0 -- -- 47
2019-08-08 13:00:00 25.7 10 Sudoeste 36 Sur 0 -- -- 47
2019-08-08 12:00:00 24.7 9 Sudoeste 34 Oeste 0 -- -- 50
2019-08-08 11:00:00 23.7 10 Sudoeste 38 Oeste 0 -- -- 53
2019-08-08 10:00:00 22.4 11 Sudoeste 31 Sur 0 -- -- 56
2019-08-08 09:00:00 21.6 7 Sudoeste 24 Oeste 0 -- -- 59
2019-08-08 08:00:00 19.7 6 Sudoeste 19 Sur 0 -- -- 63
2019-08-08 07:00:00 18.5 4 Sudoeste 18 Sudoeste 0 -- -- 65
2019-08-08 06:00:00 18.9 6 Sudoeste 17 Oeste 0 -- -- 64
2019-08-08 05:00:00 18.3 9 Oeste 15 Oeste 0 -- -- 63
2019-08-08 04:00:00 18.2 6 Oeste 15 Oeste 0 -- -- 62
2019-08-08 03:00:00 18.8 5 Oeste 17 Oeste 0 -- -- 62
2019-08-08 02:00:00 17.9 4 Oeste 16 Oeste 0 -- -- 71
2019-08-08 01:00:00 18.3 7 Oeste 28 Oeste 0 -- -- 69
2019-08-08 00:00:00 18.4 7 Sudoeste 21 Oeste 0.2 -- -- 73
2019-08-07 23:00:00 19 9 Oeste 19 Oeste 0 -- -- 67
2019-08-07 22:00:00 21.1 8 Oeste 18 Oeste 0 -- -- 46
2019-08-07 21:00:00 22.2 9 Oeste 18 Oeste 0 -- -- 41
2019-08-07 20:00:00 23.5 7 Sudoeste 26 Oeste 0 -- -- 38
2019-08-07 19:00:00 23.9 8 Sudoeste 40 Oeste 0 -- -- 38
2019-08-07 18:00:00 25.7 8 Sudoeste 34 Sudoeste 0 -- -- 33
2019-08-07 17:00:00 25.9 10 Sudoeste 29 Sur 0 -- -- 33
2019-08-07 16:00:00 26.4 10 Sudoeste 29 Oeste 0 -- -- 33
2019-08-07 15:00:00 25.8 14 Oeste 24 Norte 0 -- -- 34
2019-08-07 14:00:00 25.4 7 Este 26 Este 0 -- -- 44
2019-08-07 13:00:00 24.1 6 Nordeste 17 Este 0 -- -- 48
2019-08-07 12:00:00 22.7 7 Norte 16 Norte 0 -- -- 54
2019-08-07 11:00:00 21.2 4 Norte 12 Este 0 -- -- 58
2019-08-07 10:00:00 19.8 0 Calma 7 Este 0 -- -- 66
2019-08-07 09:00:00 17.6 0 Calma 6 Sur 0 -- -- 82
2019-08-07 08:00:00 15.5 3 Sudoeste 7 Oeste 0 -- -- 89
2019-08-07 07:00:00 15.2 2 Sudoeste 8 Sur 0 -- -- 89
2019-08-07 06:00:00 15.3 0 Calma 8 Noroeste 0 -- -- 90
2019-08-07 05:00:00 15.3 3 Oeste 10 Sur 0 -- -- 88
2019-08-07 04:00:00 15.8 0 Calma 6 Este 0 -- -- 85
2019-08-07 03:00:00 16.4 0 Calma 15 Este 0 -- -- 84
2019-08-07 02:00:00 16.5 3 Sudeste 19 Este 0 -- -- 83
2019-08-07 01:00:00 16.6 6 Este 14 Este 0 -- -- 84
2019-08-07 00:00:00 16.7 8 Este 20 Este 0 -- -- 80
2019-08-06 23:00:00 17.3 13 Este 25 Este 0 -- -- 75
2019-08-06 22:00:00 19.2 10 Este 24 Este 0 -- -- 65
2019-08-06 21:00:00 21 14 Nordeste 27 Este 0 -- -- 59
2019-08-06 20:00:00 23.9 14 Este 23 Este 0 -- -- 48
2019-08-06 19:00:00 26.2 12 Nordeste 28 Norte 0 -- -- 41
2019-08-06 18:00:00 29 4 Este 22 Oeste 0 -- -- 30
2019-08-06 17:00:00 30.3 7 Oeste 23 Oeste 0 -- -- 26
2019-08-06 16:00:00 30 13 Oeste 26 Oeste 0 -- -- 27
2019-08-06 15:00:00 29.5 10 Oeste 28 Oeste 0 -- -- 28
2019-08-06 14:00:00 28.1 0 Calma 15 Sudeste 0 -- -- 35
2019-08-06 13:00:00 25.2 5 Nordeste 14 Este 0 -- -- 44
2019-08-06 12:00:00 23.3 5 Norte 12 Norte 0 -- -- 49
2019-08-06 11:00:00 20.3 0 Calma 12 Norte 0 -- -- 58
2019-08-06 10:00:00 19.5 2 Nordeste 9 Norte 0 -- -- 63
2019-08-06 09:00:00 17 0 Calma 5 Sur 0 -- -- 79
2019-08-06 08:00:00 13.4 0 Calma 8 Sur 0 -- -- 91
2019-08-06 07:00:00 12.7 3 Sudoeste 10 Sur 0 -- -- 92
2019-08-06 06:00:00 12.7 0 Calma 9 Sur 0 -- -- 92
2019-08-06 05:00:00 13 0 Calma 7 Oeste 0 -- -- 90
2019-08-06 04:00:00 13.8 3 Sudoeste 8 Sur 0 -- -- 90
2019-08-06 03:00:00 14.9 6 Este 13 Sur 0 -- -- 89
2019-08-06 02:00:00 14.8 5 Este 14 Este 0 -- -- 89
2019-08-06 01:00:00 16.2 7 Sudeste 15 Este 0 -- -- 87
2019-08-06 00:00:00 16.5 4 Este 14 Este 0 -- -- 84
2019-08-05 23:00:00 17.6 7 Este 18 Este 0 -- -- 80
2019-08-05 22:00:00 18.9 11 Este 19 Este 0 -- -- 73
2019-08-05 21:00:00 21.7 12 Este 21 Este 0 -- -- 58
2019-08-05 20:00:00 24.4 13 Nordeste 28 Norte 0 -- -- 46
2019-08-05 19:00:00 27 14 Nordeste 31 Este 0 -- -- 39
2019-08-05 18:00:00 28.3 16 Este 26 Este 0 -- -- 32
2019-08-05 17:00:00 28 14 Este 23 Este 0 -- -- 34
2019-08-05 16:00:00 27.3 14 Este 25 Este 0.1 -- -- 35
2019-08-05 15:00:00 27.1 9 Nordeste 24 Este 0 -- -- 37
2019-08-05 14:00:00 25.4 8 Nordeste 21 Este 0 -- -- 40
2019-08-05 13:00:00 24.9 6 Nordeste 16 Este 0 -- -- 44
2019-08-05 12:00:00 22.2 6 Nordeste 21 Este 0 -- -- 51
2019-08-05 11:00:00 20.8 5 Nordeste 14 Norte 0 -- -- 55
2019-08-05 10:00:00 19.1 4 Este 10 Este 0 -- -- 66
2019-08-05 09:00:00 17.2 4 Este 7 Este 0 -- -- 79
2019-08-05 08:00:00 13.8 0 Calma 5 Sur 0 -- -- 91
2019-08-05 07:00:00 13.2 0 Calma 5 Sur 0 -- -- 91
2019-08-05 06:00:00 13.4 3 Sur 6 Este 0 -- -- 90
2019-08-05 05:00:00 14 3 Este 7 Este 0 -- -- 90
2019-08-05 04:00:00 14.7 6 Este 9 Este 0 -- -- 85
2019-08-05 03:00:00 16.3 8 Este 12 Este 0 -- -- 82
2019-08-05 02:00:00 16.4 6 Este 13 Este 0 -- -- 84
2019-08-05 01:00:00 16.2 9 Este 18 Este 0 -- -- 86
2019-08-05 00:00:00 16.1 13 Este 22 Este 0 -- -- 88
2019-08-04 23:00:00 16.2 12 Este 23 Este 0 -- -- 88
2019-08-04 22:00:00 17.4 17 Este 26 Este 0 -- -- 81
2019-08-04 21:00:00 19.8 13 Este 21 Norte 0 -- -- 67
2019-08-04 20:00:00 23 12 Nordeste 26 Norte 0 -- -- 54
2019-08-04 19:00:00 24.9 16 Norte 31 Norte 0 -- -- 47
2019-08-04 18:00:00 28.2 12 Nordeste 24 Este 0 -- -- 37
2019-08-04 17:00:00 28.3 10 Nordeste 33 Este 0 -- -- 37
2019-08-04 16:00:00 28 6 Nordeste 20 Norte 0 -- -- 38
2019-08-04 15:00:00 25.8 6 Norte 19 Norte 0 -- -- 45
2019-08-04 14:00:00 23.1 5 Nordeste 19 Norte 0 -- -- 55
2019-08-04 13:00:00 20.6 3 Nordeste 13 Este 0 -- -- 66
2019-08-04 12:00:00 18.1 4 Nordeste 11 Este 0 -- -- 78
2019-08-04 11:00:00 16.9 3 Este 9 Este 0 -- -- 84
2019-08-04 10:00:00 16.3 5 Nordeste 11 Este 0 -- -- 92
2019-08-04 09:00:00 16.1 6 Norte 12 Este 0 -- -- 93
2019-08-04 08:00:00 16.1 7 Este 14 Este 0 -- -- 93
2019-08-04 07:00:00 16.3 8 Este 13 Este 0 -- -- 91
2019-08-04 06:00:00 16.4 7 Este 12 Este 0 -- -- 91
2019-08-04 05:00:00 16.5 7 Este 10 Este 0 -- -- 92
2019-08-04 04:00:00 16.5 7 Este 14 Este 0 -- -- 92
2019-08-04 03:00:00 16.3 6 Este 10 Este 0 -- -- 93
2019-08-04 02:00:00 16 6 Este 9 Este 0 -- -- 90
2019-08-04 01:00:00 16.8 7 Este 10 Este 0 -- -- 87
2019-08-04 00:00:00 17.9 5 Este 17 Este 0 -- -- 80
2019-08-03 23:00:00 19.5 12 Este 21 Este 0 -- -- 73
2019-08-03 22:00:00 21.2 9 Este 19 Este 0 -- -- 68
2019-08-03 21:00:00 24.2 12 Este 29 Norte 0 -- -- 51
2019-08-03 20:00:00 27.7 14 Nordeste 24 Nordeste 0 -- -- 35
2019-08-03 19:00:00 29.7 11 Este 25 Este 0 -- -- 26
2019-08-03 18:00:00 30 8 Nordeste 22 Norte 0 -- -- 26
2019-08-03 17:00:00 29.5 10 Nordeste 22 Este 0 -- -- 27
2019-08-03 16:00:00 28.7 10 Este 22 Este 0 -- -- 31
2019-08-03 15:00:00 27.1 9 Este 22 Este 0 -- -- 37
2019-08-03 14:00:00 26 8 Este 20 Este 0 -- -- 43
2019-08-03 13:00:00 24.6 7 Este 16 Este 0 -- -- 48
2019-08-03 12:00:00 22.2 5 Este 13 Este 0 -- -- 53
2019-08-03 11:00:00 20.7 5 Nordeste 12 Este 0 -- -- 59
2019-08-03 10:00:00 19 6 Este 10 Este 0 -- -- 68
2019-08-03 09:00:00 16.6 0 Calma 7 Oeste 0 -- -- 80
2019-08-03 08:00:00 13 3 Sur 10 Sur 0 -- -- 89
2019-08-03 07:00:00 12.1 3 Sudoeste 8 Oeste 0 -- -- 90
2019-08-03 06:00:00 12.3 4 Sudoeste 8 Oeste 0 -- -- 90
2019-08-03 05:00:00 12.2 0 Calma 7 Sur 0 -- -- 89
2019-08-03 04:00:00 12.5 3 Sudoeste 8 Oeste 0 -- -- 88
2019-08-03 03:00:00 12.9 0 Calma 9 Oeste 0 -- -- 87
2019-08-03 02:00:00 13.3 3 Sudoeste 9 Oeste 0 -- -- 84
2019-08-03 01:00:00 14.4 4 Sudoeste 8 Oeste 0 -- -- 83
2019-08-03 00:00:00 15.8 0 Calma 7 Este 0 -- -- 80
2019-08-02 23:00:00 17.1 5 Este 12 Este 0 -- -- 76
2019-08-02 22:00:00 19 9 Este 14 Norte 0 -- -- 65
2019-08-02 21:00:00 22.2 8 Nordeste 17 Este 0 -- -- 46
2019-08-02 20:00:00 24.7 10 Nordeste 21 Este 0 -- -- 41
2019-08-02 19:00:00 26 9 Nordeste 19 Norte 0 -- -- 38
2019-08-02 18:00:00 25.9 8 Nordeste 22 Este 0 -- -- 37
2019-08-02 17:00:00 26 9 Este 21 Este 0 -- -- 37
2019-08-02 16:00:00 24.9 8 Nordeste 23 Este 0 -- -- 41
2019-08-02 15:00:00 24 8 Norte 17 Norte 0 -- -- 44
2019-08-02 14:00:00 22.3 6 Norte 19 Este 0 -- -- 48
2019-08-02 13:00:00 20.7 8 Este 18 Este 0 -- -- 58
2019-08-02 12:00:00 18.6 6 Este 15 Este 0 -- -- 66
2019-08-02 11:00:00 16.3 4 Este 10 Este 0 -- -- 77
2019-08-02 10:00:00 15.1 7 Este 11 Este 0 -- -- 84
2019-08-02 09:00:00 14.4 3 Nordeste 13 Este 0 -- -- 90
2019-08-02 08:00:00 14.4 5 Este 10 Norte 0 -- -- 91
2019-08-02 07:00:00 14.3 6 Este 12 Este 0 -- -- 93
2019-08-02 06:00:00 14.4 4 Este 11 Este 0 -- -- 94
2019-08-02 05:00:00 14.3 6 Nordeste 11 Norte 0 -- -- 94
2019-08-02 04:00:00 14.3 6 Este 12 Este 0 -- -- 94
2019-08-02 03:00:00 14.5 6 Este 13 Este 0 -- -- 93
2019-08-02 02:00:00 14.6 7 Este 13 Este 0 -- -- 93
2019-08-02 01:00:00 14.8 8 Este 12 Este 0 -- -- 93
2019-08-02 00:00:00 15 8 Nordeste 18 Este 0 -- -- 91
2019-08-01 23:00:00 15.5 10 Este 17 Este 0 -- -- 90
2019-08-01 22:00:00 15.9 11 Este 16 Este 0 -- -- 88
2019-08-01 21:00:00 16.7 13 Este 19 Este 0 -- -- 85
2019-08-01 20:00:00 18.3 12 Este 19 Este 0 -- -- 77
2019-08-01 19:00:00 20.2 11 Este 18 Norte 0 -- -- 71
2019-08-01 18:00:00 21.6 11 Norte 20 Norte 0 -- -- 62
2019-08-01 17:00:00 21.6 6 Norte 15 Norte 0 -- -- 64
2019-08-01 16:00:00 21 5 Norte 17 Norte 0 -- -- 69
2019-08-01 15:00:00 20.1 8 Este 20 Nordeste 0 -- -- 73
2019-08-01 14:00:00 18.5 9 Nordeste 19 Este 0 -- -- 83
2019-08-01 13:00:00 16.9 11 Este 18 Este 0 -- -- 92
2019-08-01 12:00:00 15.6 10 Este 17 Este 0 -- -- 95
2019-08-01 11:00:00 15.1 6 Nordeste 14 Este 0 -- -- 97
2019-08-01 10:00:00 14.6 7 Nordeste 13 Este 0 -- -- 98
2019-08-01 09:00:00 13.8 6 Norte 13 Norte 0.1 -- -- 99
2019-08-01 08:00:00 13.4 4 Norte 12 Norte 0 -- -- 98
2019-08-01 07:00:00 13.6 4 Este 30 Nordeste 14.2 -- -- 97
2019-08-01 06:00:00 13 6 Sudeste 26 Este 10.7 -- -- 98
2019-08-01 05:00:00 13.1 5 Este 19 Oeste 13.7 -- -- 98
2019-08-01 04:00:00 13.6 8 Nordeste 14 Este 0 -- -- 94
2019-08-01 03:00:00 13.7 8 Este 15 Este 0 -- -- 91
2019-08-01 02:00:00 13.7 5 Este 13 Este 0 -- -- 91
2019-08-01 01:00:00 13.1 6 Este 11 Este 0 -- -- 90
2019-08-01 00:00:00 13.7 5 Este 12 Este 0 -- -- 85
2019-07-31 23:00:00 14.9 8 Este 14 Este 0 -- -- 79
2019-07-31 22:00:00 16 8 Este 20 Este 0 -- -- 71
2019-07-31 21:00:00 18.1 9 Nordeste 23 Este 0 -- -- 59
2019-07-31 20:00:00 20.1 13 Norte 26 Norte 0 -- -- 48
2019-07-31 19:00:00 22.5 12 Nordeste 25 Norte 0 -- -- 36
2019-07-31 18:00:00 23.6 15 Este 29 Este 0 -- -- 31
2019-07-31 17:00:00 23.2 18 Este 28 Este 0 -- -- 32
2019-07-31 16:00:00 22.5 12 Este 27 Este 0 -- -- 36
2019-07-31 15:00:00 21.5 11 Nordeste 27 Este 0 -- -- 38
2019-07-31 14:00:00 19.2 12 Este 22 Este 0 -- -- 42
2019-07-31 13:00:00 18.6 9 Nordeste 22 Este 0 -- -- 44
2019-07-31 12:00:00 16.5 9 Nordeste 22 Este 0 -- -- 55
2019-07-31 11:00:00 15 11 Este 18 Este 0 -- -- 62
2019-07-31 10:00:00 13.1 6 Nordeste 13 Este 0 -- -- 77
2019-07-31 09:00:00 11.2 5 Este 8 Este 0 -- -- 87
2019-07-31 08:00:00 8.1 0 Calma 5 Oeste 0 -- -- 91
2019-07-31 07:00:00 7.7 0 Calma 6 Este 0 -- -- 92
2019-07-31 06:00:00 8 0 Calma 5 Este 0 -- -- 91
2019-07-31 05:00:00 8.2 4 Este 7 Este 0 -- -- 92
2019-07-31 04:00:00 8.8 6 Este 9 Este 0 -- -- 91
2019-07-31 03:00:00 9.3 6 Este 11 Este 0 -- -- 88
2019-07-31 02:00:00 9.3 6 Este 10 Este 0 -- -- 87
2019-07-31 01:00:00 9.8 6 Este 10 Este 0 -- -- 86
2019-07-31 00:00:00 10.8 9 Este 14 Este 0 -- -- 84
2019-07-30 23:00:00 11.7 10 Este 17 Este 0 -- -- 79
2019-07-30 22:00:00 13.2 12 Este 21 Este 0 -- -- 68
2019-07-30 21:00:00 15.5 11 Nordeste 30 Este 0 -- -- 55
2019-07-30 20:00:00 18.1 14 Nordeste 28 Norte 0 -- -- 44
2019-07-30 19:00:00 19.7 16 Nordeste 31 Norte 0 -- -- 39
2019-07-30 18:00:00 21 12 Nordeste 28 Este 0 -- -- 32
2019-07-30 17:00:00 21.1 9 Nordeste 26 Este 0 -- -- 32
2019-07-30 16:00:00 20.9 10 Nordeste 42 Norte 0 -- -- 34
2019-07-30 15:00:00 19.4 6 Nordeste 23 Este 0 -- -- 36
2019-07-30 14:00:00 18.8 8 Nordeste 26 Este 0 -- -- 41
2019-07-30 13:00:00 18 7 Este 21 Este 0 -- -- 47
2019-07-30 12:00:00 16.1 10 Este 22 Este 0 -- -- 57
2019-07-30 11:00:00 14.4 9 Nordeste 18 Este 0 -- -- 71
2019-07-30 10:00:00 13.3 6 Este 17 Este 0 -- -- 80
2019-07-30 09:00:00 12.9 10 Este 16 Este 0 -- -- 83
2019-07-30 08:00:00 12.5 9 Este 16 Este 0 -- -- 87
2019-07-30 07:00:00 12.5 9 Este 15 Este 0 -- -- 88
2019-07-30 06:00:00 12.7 9 Este 13 Este 0 -- -- 89
2019-07-30 05:00:00 12.8 9 Este 14 Este 0 -- -- 90
2019-07-30 04:00:00 12.8 10 Este 16 Este 0 -- -- 90
2019-07-30 03:00:00 13.4 10 Este 17 Nordeste 0 -- -- 87
2019-07-30 02:00:00 14 8 Nordeste 13 Norte 0 -- -- 87
2019-07-30 01:00:00 14.1 8 Este 14 Este 0 -- -- 86
2019-07-30 00:00:00 14.1 7 Nordeste 16 Este 0 -- -- 86
2019-07-29 23:00:00 14.8 10 Este 16 Este 0 -- -- 80
2019-07-29 22:00:00 14.9 9 Este 18 Nordeste 0 -- -- 79
2019-07-29 21:00:00 16.1 12 Nordeste 31 Este 0 -- -- 71
2019-07-29 20:00:00 19.4 17 Este 30 Este 0 -- -- 57
2019-07-29 19:00:00 27.3 11 Oeste 28 Oeste 0 -- -- 20
2019-07-29 18:00:00 27.3 14 Oeste 35 Oeste 0 -- -- 25
2019-07-29 17:00:00 27.5 13 Sudoeste 37 Sudoeste 0 -- -- 26
2019-07-29 16:00:00 27.5 12 Sudoeste 36 Oeste 0 -- -- 24
2019-07-29 15:00:00 26.9 10 Sudoeste 33 Oeste 0 -- -- 24
2019-07-29 14:00:00 26.2 6 Sudoeste 32 Oeste 0 -- -- 23
2019-07-29 13:00:00 25.1 10 Sudoeste 27 Oeste 0 -- -- 21
2019-07-29 12:00:00 24.6 10 Oeste 24 Oeste 0 -- -- 28
2019-07-29 11:00:00 21.5 8 Norte 15 Norte 0 -- -- 41
2019-07-29 10:00:00 18.5 0 Calma 8 Norte 0 -- -- 49
2019-07-29 09:00:00 16.1 0 Calma 2 Este 0 -- -- 61
2019-07-29 08:00:00 12.1 0 Calma 6 Oeste 0 -- -- 77
2019-07-29 07:00:00 10.2 0 Calma 8 Oeste 0 -- -- 77
2019-07-29 06:00:00 10.2 2 Sudoeste 10 Sur 0 -- -- 78
2019-07-29 05:00:00 10.5 3 Sudoeste 7 Sur 0 -- -- 77
2019-07-29 04:00:00 10.7 0 Calma 8 Sur 0 -- -- 77
2019-07-29 03:00:00 11.1 4 Sudoeste 18 Sur 0 -- -- 75
2019-07-29 02:00:00 11.8 3 Sudoeste 8 Oeste 0 -- -- 72
2019-07-29 01:00:00 12.6 2 Sur 8 Sur 0 -- -- 73
2019-07-29 00:00:00 13 2 Sudoeste 11 Sur 0 -- -- 73
2019-07-28 23:00:00 13.9 5 Sudoeste 9 Oeste 0 -- -- 66
2019-07-28 22:00:00 17.3 2 Este 16 Norte 0 -- -- 52
2019-07-28 21:00:00 20.8 5 Sudoeste 13 Sur 0 -- -- 32
2019-07-28 20:00:00 24.7 5 Sudoeste 16 Oeste 0 -- -- 24
2019-07-28 19:00:00 23.5 3 Nordeste 17 Norte 0 -- -- 27
2019-07-28 18:00:00 23.1 4 Norte 21 Norte 0 -- -- 30
2019-07-28 17:00:00 22.6 4 Norte 22 Noroeste 0 -- -- 33
2019-07-28 16:00:00 21.7 6 Noroeste 21 Norte 0 -- -- 34
2019-07-28 15:00:00 20 4 Norte 24 Noroeste 0 -- -- 39
2019-07-28 14:00:00 19 7 Norte 17 Este 0 -- -- 45
2019-07-28 13:00:00 17.3 4 Este 16 Norte 0 -- -- 50
2019-07-28 12:00:00 15.9 5 Norte 13 Este 0 -- -- 59
2019-07-28 11:00:00 15 4 Nordeste 10 Este 0 -- -- 69
2019-07-28 10:00:00 13.3 5 Nordeste 12 Este 0 -- -- 72
2019-07-28 09:00:00 12.2 0 Calma 7 Sur 0 -- -- 86
2019-07-28 08:00:00 9.7 2 Sudoeste 7 Oeste 0 -- -- 92
2019-07-28 07:00:00 10 2 Sudoeste 6 Sur 0 -- -- 92
2019-07-28 06:00:00 10.9 2 Sur 6 Sur 0 -- -- 92
2019-07-28 05:00:00 9.9 3 Sudoeste 9 Sudoeste 0 -- -- 93
2019-07-28 04:00:00 9.5 3 Sudoeste 8 Oeste 0 -- -- 91
2019-07-28 03:00:00 10.4 0 Calma 8 Oeste 0 -- -- 89
2019-07-28 02:00:00 12 5 Noroeste 10 Norte 0 -- -- 86
2019-07-28 01:00:00 12.2 3 Sudoeste 9 Oeste 0 -- -- 93
2019-07-28 00:00:00 12.1 4 Nordeste 9 Este 0.1 -- -- 93
2019-07-27 23:00:00 12.8 5 Norte 11 Oeste 0 -- -- 90
2019-07-26 12:00:00 16.3 6 Nordeste 17 Norte 0.4 -- -- 94
2019-07-26 11:00:00 16.6 8 Norte 17 Norte 0 -- -- 95
2019-07-26 10:00:00 16.4 9 Norte 15 Norte 0 -- -- 96
2019-07-26 09:00:00 16.5 8 Este 20 Este 0 -- -- 96
2019-07-26 08:00:00 16.3 13 Este 33 Norte 0.1 -- -- 98
2019-07-26 07:00:00 16.1 15 Norte 28 Norte 1.1 -- -- 97
2019-07-26 06:00:00 16.2 10 Este 20 Norte 0.2 -- -- 98
2019-07-26 05:00:00 16.2 10 Norte 18 Norte 0.3 -- -- 98
2019-07-26 04:00:00 16.4 4 Nordeste 20 Este 0.3 -- -- 97
2019-07-26 03:00:00 16.9 13 Este 22 Este 0.8 -- -- 97
2019-07-26 02:00:00 17.5 9 Norte 14 Este 0 -- -- 94
2019-07-26 01:00:00 17.8 9 Este 21 Este 0 -- -- 90
2019-07-26 00:00:00 17.9 15 Este 23 Este 0 -- -- 90